sensor_id;sensor_type;location;lat;lon;timestamp;pressure;altitude;pressure_sealevel;temperature;humidity
68107;BME280;54892;47.488;19.026;2023-03-23T00:00:05;99869.63;;;8.96;68.53
68107;BME280;54892;47.488;19.026;2023-03-23T00:03:07;99870.00;;;9.05;67.79
68107;BME280;54892;47.488;19.026;2023-03-23T00:06:10;99875.91;;;8.90;68.52
68107;BME280;54892;47.488;19.026;2023-03-23T00:09:17;99877.94;;;9.10;67.35
68107;BME280;54892;47.488;19.026;2023-03-23T00:12:25;99871.00;;;8.98;67.72
68107;BME280;54892;47.488;19.026;2023-03-23T00:15:33;99864.19;;;9.03;68.10
68107;BME280;54892;47.488;19.026;2023-03-23T00:18:36;99862.75;;;9.17;67.00
68107;BME280;54892;47.488;19.026;2023-03-23T00:21:39;99863.00;;;9.43;65.42
68107;BME280;54892;47.488;19.026;2023-03-23T00:24:42;99860.31;;;9.38;65.51
68107;BME280;54892;47.488;19.026;2023-03-23T00:27:44;99856.72;;;9.49;65.14
68107;BME280;54892;47.488;19.026;2023-03-23T00:30:46;99856.19;;;9.52;64.94
68107;BME280;54892;47.488;19.026;2023-03-23T00:33:47;99861.19;;;9.49;65.12
68107;BME280;54892;47.488;19.026;2023-03-23T00:36:51;99861.34;;;9.37;65.42
68107;BME280;54892;47.488;19.026;2023-03-23T00:39:53;99858.88;;;9.25;65.88
68107;BME280;54892;47.488;19.026;2023-03-23T00:42:57;99856.41;;;9.13;66.52
68107;BME280;54892;47.488;19.026;2023-03-23T00:46:00;99851.38;;;9.11;66.69
68107;BME280;54892;47.488;19.026;2023-03-23T00:49:02;99850.78;;;9.04;67.33
68107;BME280;54892;47.488;19.026;2023-03-23T00:52:05;99848.28;;;8.92;68.01
68107;BME280;54892;47.488;19.026;2023-03-23T00:55:08;99850.34;;;8.85;68.25
68107;BME280;54892;47.488;19.026;2023-03-23T00:58:10;99849.78;;;8.83;68.10
68107;BME280;54892;47.488;19.026;2023-03-23T01:01:12;99851.75;;;8.71;68.76
68107;BME280;54892;47.488;19.026;2023-03-23T01:04:14;99843.50;;;8.62;68.98
68107;BME280;54892;47.488;19.026;2023-03-23T01:07:17;99840.97;;;8.50;69.36
68107;BME280;54892;47.488;19.026;2023-03-23T01:10:19;99840.31;;;8.43;70.01
68107;BME280;54892;47.488;19.026;2023-03-23T01:13:21;99833.44;;;8.36;70.25
68107;BME280;54892;47.488;19.026;2023-03-23T01:16:23;99840.31;;;8.43;70.08
68107;BME280;54892;47.488;19.026;2023-03-23T01:19:25;99840.66;;;8.46;70.09
68107;BME280;54892;47.488;19.026;2023-03-23T01:22:29;99838.25;;;8.45;70.04
68107;BME280;54892;47.488;19.026;2023-03-23T01:25:31;99826.94;;;8.44;69.61
68107;BME280;54892;47.488;19.026;2023-03-23T01:28:33;99833.34;;;8.31;70.24
68107;BME280;54892;47.488;19.026;2023-03-23T01:31:35;99831.28;;;8.33;70.44
68107;BME280;54892;47.488;19.026;2023-03-23T01:34:38;99833.84;;;8.28;70.59
68107;BME280;54892;47.488;19.026;2023-03-23T01:37:41;99835.13;;;8.26;70.94
68107;BME280;54892;47.488;19.026;2023-03-23T01:40:42;99829.56;;;8.22;70.93
68107;BME280;54892;47.488;19.026;2023-03-23T01:43:57;99833.53;;;8.25;70.77
68107;BME280;54892;47.488;19.026;2023-03-23T01:47:01;99828.56;;;8.28;70.67
68107;BME280;54892;47.488;19.026;2023-03-23T01:50:03;99828.66;;;8.33;70.49
68107;BME280;54892;47.488;19.026;2023-03-23T01:53:06;99828.56;;;8.28;70.81
68107;BME280;54892;47.488;19.026;2023-03-23T01:56:09;99826.31;;;8.15;71.22
68107;BME280;54892;47.488;19.026;2023-03-23T01:59:14;99827.22;;;8.03;71.50
68107;BME280;54892;47.488;19.026;2023-03-23T02:02:16;99824.44;;;7.93;71.58
68107;BME280;54892;47.488;19.026;2023-03-23T02:05:21;99822.78;;;7.87;71.87
68107;BME280;54892;47.488;19.026;2023-03-23T02:08:27;99823.72;;;7.81;71.99
68107;BME280;54892;47.488;19.026;2023-03-23T02:11:30;99821.75;;;7.88;71.74
68107;BME280;54892;47.488;19.026;2023-03-23T02:14:32;99819.13;;;7.88;71.65
68107;BME280;54892;47.488;19.026;2023-03-23T02:17:35;99824.22;;;7.77;71.91
68107;BME280;54892;47.488;19.026;2023-03-23T02:20:56;99829.25;;;7.79;71.89
68107;BME280;54892;47.488;19.026;2023-03-23T02:24:28;99826.22;;;7.70;71.69
68107;BME280;54892;47.488;19.026;2023-03-23T02:27:38;99824.63;;;7.52;72.40
68107;BME280;54892;47.488;19.026;2023-03-23T02:30:59;99818.72;;;7.45;72.66
68107;BME280;54892;47.488;19.026;2023-03-23T02:34:07;99832.34;;;7.42;72.84
68107;BME280;54892;47.488;19.026;2023-03-23T02:37:11;99834.03;;;7.48;72.84
68107;BME280;54892;47.488;19.026;2023-03-23T02:40:16;99837.28;;;7.38;73.52
68107;BME280;54892;47.488;19.026;2023-03-23T02:43:21;99840.00;;;7.43;73.19
68107;BME280;54892;47.488;19.026;2023-03-23T02:46:23;99836.34;;;7.44;73.18
68107;BME280;54892;47.488;19.026;2023-03-23T02:49:28;99840.37;;;7.35;73.37
68107;BME280;54892;47.488;19.026;2023-03-23T02:52:32;99834.19;;;7.41;73.33
68107;BME280;54892;47.488;19.026;2023-03-23T02:55:36;99840.94;;;7.37;73.36
68107;BME280;54892;47.488;19.026;2023-03-23T02:58:42;99837.75;;;7.35;73.49
68107;BME280;54892;47.488;19.026;2023-03-23T03:05:16;99841.22;;;7.24;74.16
68107;BME280;54892;47.488;19.026;2023-03-23T03:08:23;99843.44;;;7.15;74.37
68107;BME280;54892;47.488;19.026;2023-03-23T03:11:28;99840.75;;;7.27;74.14
68107;BME280;54892;47.488;19.026;2023-03-23T03:14:33;99843.28;;;7.22;74.08
68107;BME280;54892;47.488;19.026;2023-03-23T03:17:40;99843.91;;;7.12;74.57
68107;BME280;54892;47.488;19.026;2023-03-23T03:20:47;99838.50;;;7.19;74.14
68107;BME280;54892;47.488;19.026;2023-03-23T03:23:50;99846.31;;;7.13;74.55
68107;BME280;54892;47.488;19.026;2023-03-23T03:26:52;99843.75;;;7.19;74.31
68107;BME280;54892;47.488;19.026;2023-03-23T03:29:58;99840.97;;;7.08;74.73
68107;BME280;54892;47.488;19.026;2023-03-23T03:33:01;99847.25;;;7.07;74.55
68107;BME280;54892;47.488;19.026;2023-03-23T03:36:05;99853.97;;;7.03;74.83
68107;BME280;54892;47.488;19.026;2023-03-23T03:39:09;99852.97;;;7.04;74.76
68107;BME280;54892;47.488;19.026;2023-03-23T03:42:11;99854.47;;;7.00;74.87
68107;BME280;54892;47.488;19.026;2023-03-23T03:45:13;99845.47;;;6.96;74.90
68107;BME280;54892;47.488;19.026;2023-03-23T03:48:15;99841.97;;;6.90;75.24
68107;BME280;54892;47.488;19.026;2023-03-23T03:51:18;99854.47;;;7.00;74.92
68107;BME280;54892;47.488;19.026;2023-03-23T03:54:20;99850.72;;;6.96;74.98
68107;BME280;54892;47.488;19.026;2023-03-23T03:57:22;99857.78;;;6.95;74.85
68107;BME280;54892;47.488;19.026;2023-03-23T04:00:24;99860.66;;;6.94;75.25
68107;BME280;54892;47.488;19.026;2023-03-23T04:03:26;99865.16;;;6.81;75.74
68107;BME280;54892;47.488;19.026;2023-03-23T04:06:30;99869.13;;;6.84;75.56
68107;BME280;54892;47.488;19.026;2023-03-23T04:09:33;99859.91;;;6.81;75.78
68107;BME280;54892;47.488;19.026;2023-03-23T04:12:35;99863.56;;;6.80;75.93
68107;BME280;54892;47.488;19.026;2023-03-23T04:15:37;99863.31;;;6.82;75.87
68107;BME280;54892;47.488;19.026;2023-03-23T04:18:39;99868.88;;;6.85;75.74
68107;BME280;54892;47.488;19.026;2023-03-23T04:21:44;99870.47;;;6.86;75.63
68107;BME280;54892;47.488;19.026;2023-03-23T04:24:49;99870.59;;;6.80;75.78
68107;BME280;54892;47.488;19.026;2023-03-23T04:27:52;99869.44;;;6.88;75.62
68107;BME280;54892;47.488;19.026;2023-03-23T04:30:54;99871.50;;;6.85;75.58
68107;BME280;54892;47.488;19.026;2023-03-23T04:33:56;99870.81;;;6.90;75.31
68107;BME280;54892;47.488;19.026;2023-03-23T04:37:01;99870.47;;;8.35;86.16
68107;BME280;54892;47.488;19.026;2023-03-23T04:40:04;99873.53;;;10.18;80.05
68107;BME280;54892;47.488;19.026;2023-03-23T04:43:11;99870.25;;;11.33;74.09
68107;BME280;54892;47.488;19.026;2023-03-23T04:46:27;99868.62;;;10.38;64.92
68107;BME280;54892;47.488;19.026;2023-03-23T04:49:30;99867.31;;;9.27;66.82
68107;BME280;54892;47.488;19.026;2023-03-23T04:52:33;99875.25;;;8.55;68.86
68107;BME280;54892;47.488;19.026;2023-03-23T04:55:37;99873.56;;;10.24;77.37
68107;BME280;54892;47.488;19.026;2023-03-23T04:58:41;99872.31;;;11.00;65.58
68107;BME280;54892;47.488;19.026;2023-03-23T05:01:44;99875.88;;;9.72;65.01
68107;BME280;54892;47.488;19.026;2023-03-23T05:04:46;99876.84;;;9.06;67.13
68107;BME280;54892;47.488;19.026;2023-03-23T05:07:50;99876.41;;;8.64;68.45
68107;BME280;54892;47.488;19.026;2023-03-23T05:10:52;99878.09;;;8.14;70.46
68107;BME280;54892;47.488;19.026;2023-03-23T05:13:55;99880.69;;;7.92;71.53
68107;BME280;54892;47.488;19.026;2023-03-23T05:16:57;99888.38;;;7.82;72.00
68107;BME280;54892;47.488;19.026;2023-03-23T05:19:59;99887.28;;;7.77;72.25
68107;BME280;54892;47.488;19.026;2023-03-23T05:23:05;99889.91;;;7.77;72.44
68107;BME280;54892;47.488;19.026;2023-03-23T05:26:06;99887.91;;;7.68;72.91
68107;BME280;54892;47.488;19.026;2023-03-23T05:29:08;99890.28;;;7.69;73.05
68107;BME280;54892;47.488;19.026;2023-03-23T05:32:11;99885.03;;;7.69;73.08
68107;BME280;54892;47.488;19.026;2023-03-23T05:35:13;99881.38;;;7.70;73.16
68107;BME280;54892;47.488;19.026;2023-03-23T05:38:17;99884.41;;;7.79;73.04
68107;BME280;54892;47.488;19.026;2023-03-23T05:41:20;99874.22;;;8.00;72.46
68107;BME280;54892;47.488;19.026;2023-03-23T05:44:21;99873.16;;;8.18;71.85
68107;BME280;54892;47.488;19.026;2023-03-23T05:47:23;99876.34;;;8.20;71.88
68107;BME280;54892;47.488;19.026;2023-03-23T05:50:25;99870.81;;;8.38;71.13
68107;BME280;54892;47.488;19.026;2023-03-23T05:53:29;99872.84;;;8.53;70.59
68107;BME280;54892;47.488;19.026;2023-03-23T05:56:31;99862.09;;;9.32;68.40
68107;BME280;54892;47.488;19.026;2023-03-23T05:59:33;99862.31;;;10.39;65.61
68107;BME280;54892;47.488;19.026;2023-03-23T06:02:35;99860.47;;;11.13;61.98
68107;BME280;54892;47.488;19.026;2023-03-23T06:05:41;99855.47;;;11.32;60.61
68107;BME280;54892;47.488;19.026;2023-03-23T06:08:45;99863.87;;;12.12;57.07
68107;BME280;54892;47.488;19.026;2023-03-23T06:11:49;99869.34;;;12.46;56.33
68107;BME280;54892;47.488;19.026;2023-03-23T06:14:51;99874.38;;;12.43;55.88
68107;BME280;54892;47.488;19.026;2023-03-23T06:17:53;99879.63;;;12.53;55.59
68107;BME280;54892;47.488;19.026;2023-03-23T06:20:57;99874.25;;;12.74;54.00
68107;BME280;54892;47.488;19.026;2023-03-23T06:24:00;99872.84;;;12.92;54.52
68107;BME280;54892;47.488;19.026;2023-03-23T06:27:01;99876.75;;;13.05;52.64
68107;BME280;54892;47.488;19.026;2023-03-23T06:30:04;99866.84;;;13.90;50.83
68107;BME280;54892;47.488;19.026;2023-03-23T06:33:06;99857.69;;;14.26;49.56
68107;BME280;54892;47.488;19.026;2023-03-23T06:36:10;99864.22;;;14.82;48.87
68107;BME280;54892;47.488;19.026;2023-03-23T06:39:14;99856.56;;;15.33;46.65
68107;BME280;54892;47.488;19.026;2023-03-23T06:42:16;99861.53;;;15.40;46.15
68107;BME280;54892;47.488;19.026;2023-03-23T06:45:19;99869.47;;;15.73;45.75
68107;BME280;54892;47.488;19.026;2023-03-23T06:48:21;99871.75;;;16.40;43.80
68107;BME280;54892;47.488;19.026;2023-03-23T06:51:23;99872.66;;;16.86;42.08
68107;BME280;54892;47.488;19.026;2023-03-23T06:54:26;99879.34;;;17.34;40.71
68107;BME280;54892;47.488;19.026;2023-03-23T06:57:28;99886.37;;;17.30;41.49
68107;BME280;54892;47.488;19.026;2023-03-23T07:00:30;99888.03;;;17.72;41.01
68107;BME280;54892;47.488;19.026;2023-03-23T07:03:32;99880.78;;;18.26;39.92
68107;BME280;54892;47.488;19.026;2023-03-23T07:06:34;99880.91;;;18.21;39.62
68107;BME280;54892;47.488;19.026;2023-03-23T07:09:37;99882.47;;;18.22;39.01
68107;BME280;54892;47.488;19.026;2023-03-23T07:12:39;99887.78;;;18.89;37.65
68107;BME280;54892;47.488;19.026;2023-03-23T07:15:42;99884.22;;;19.11;37.48
68107;BME280;54892;47.488;19.026;2023-03-23T07:18:44;99884.66;;;20.44;35.36
68107;BME280;54892;47.488;19.026;2023-03-23T07:21:46;99891.06;;;20.21;34.62
68107;BME280;54892;47.488;19.026;2023-03-23T07:24:50;99905.16;;;21.12;33.52
68107;BME280;54892;47.488;19.026;2023-03-23T07:27:52;99907.47;;;21.56;32.52
68107;BME280;54892;47.488;19.026;2023-03-23T07:30:54;99907.47;;;21.56;32.13
68107;BME280;54892;47.488;19.026;2023-03-23T07:33:56;99906.34;;;21.90;31.84
68107;BME280;54892;47.488;19.026;2023-03-23T07:36:58;99906.41;;;21.69;31.90
68107;BME280;54892;47.488;19.026;2023-03-23T07:40:02;99903.63;;;21.44;32.75
68107;BME280;54892;47.488;19.026;2023-03-23T07:43:14;99918.13;;;21.31;32.50
68107;BME280;54892;47.488;19.026;2023-03-23T07:46:16;99917.44;;;22.01;31.40
68107;BME280;54892;47.488;19.026;2023-03-23T07:49:19;99920.22;;;21.47;32.31
68107;BME280;54892;47.488;19.026;2023-03-23T07:52:21;99919.44;;;21.25;32.67
68107;BME280;54892;47.488;19.026;2023-03-23T07:55:25;99917.09;;;20.72;33.50
68107;BME280;54892;47.488;19.026;2023-03-23T07:58:27;99927.94;;;20.24;34.25
68107;BME280;54892;47.488;19.026;2023-03-23T08:01:29;99924.59;;;20.28;34.56
68107;BME280;54892;47.488;19.026;2023-03-23T08:04:31;99920.03;;;19.72;35.81
68107;BME280;54892;47.488;19.026;2023-03-23T08:07:37;99916.47;;;19.41;36.98
68107;BME280;54892;47.488;19.026;2023-03-23T08:10:41;99918.72;;;18.55;37.77
68107;BME280;54892;47.488;19.026;2023-03-23T08:13:43;99919.38;;;17.89;38.95
68107;BME280;54892;47.488;19.026;2023-03-23T08:16:45;99918.38;;;17.53;40.40
68107;BME280;54892;47.488;19.026;2023-03-23T08:19:47;99920.97;;;17.44;40.71
68107;BME280;54892;47.488;19.026;2023-03-23T08:22:53;99920.62;;;17.37;40.86
68107;BME280;54892;47.488;19.026;2023-03-23T08:25:57;99930.25;;;17.24;40.74
68107;BME280;54892;47.488;19.026;2023-03-23T08:28:59;99925.59;;;16.79;42.15
68107;BME280;54892;47.488;19.026;2023-03-23T08:32:01;99935.06;;;16.71;42.74
68107;BME280;54892;47.488;19.026;2023-03-23T08:35:04;99934.06;;;16.53;43.09
68107;BME280;54892;47.488;19.026;2023-03-23T08:38:06;99936.84;;;16.62;43.04
68107;BME280;54892;47.488;19.026;2023-03-23T08:41:09;99926.38;;;16.52;43.07
68107;BME280;54892;47.488;19.026;2023-03-23T08:44:11;99933.78;;;16.41;43.31
68107;BME280;54892;47.488;19.026;2023-03-23T08:47:13;99923.44;;;16.39;43.73
68107;BME280;54892;47.488;19.026;2023-03-23T08:50:16;99927.66;;;16.68;43.09
68107;BME280;54892;47.488;19.026;2023-03-23T08:53:19;99919.97;;;16.95;42.23
68107;BME280;54892;47.488;19.026;2023-03-23T08:56:23;99921.41;;;17.01;41.91
68107;BME280;54892;47.488;19.026;2023-03-23T08:59:25;99925.47;;;16.98;42.44
68107;BME280;54892;47.488;19.026;2023-03-23T09:02:28;99932.34;;;17.13;42.36
68107;BME280;54892;47.488;19.026;2023-03-23T09:05:31;99924.97;;;17.10;41.44
68107;BME280;54892;47.488;19.026;2023-03-23T09:08:33;99928.22;;;17.07;42.05
68107;BME280;54892;47.488;19.026;2023-03-23T09:11:37;99918.78;;;17.24;41.55
68107;BME280;54892;47.488;19.026;2023-03-23T09:14:40;99922.19;;;17.38;41.57
68107;BME280;54892;47.488;19.026;2023-03-23T09:17:42;99914.75;;;17.49;41.44
68107;BME280;54892;47.488;19.026;2023-03-23T09:20:45;99914.50;;;17.59;40.68
68107;BME280;54892;47.488;19.026;2023-03-23T09:23:46;99911.56;;;17.70;40.85
68107;BME280;54892;47.488;19.026;2023-03-23T09:26:50;99915.03;;;17.70;40.41
68107;BME280;54892;47.488;19.026;2023-03-23T09:29:53;99912.66;;;17.69;40.04
68107;BME280;54892;47.488;19.026;2023-03-23T09:32:56;99908.00;;;17.52;40.74
68107;BME280;54892;47.488;19.026;2023-03-23T09:36:01;99911.59;;;17.47;41.77
68107;BME280;54892;47.488;19.026;2023-03-23T09:39:05;99906.31;;;17.56;41.11
68107;BME280;54892;47.488;19.026;2023-03-23T09:42:15;99904.38;;;17.70;41.25
68107;BME280;54892;47.488;19.026;2023-03-23T09:45:20;99902.41;;;17.85;41.18
68107;BME280;54892;47.488;19.026;2023-03-23T09:48:37;99898.12;;;18.06;40.60
68107;BME280;54892;47.488;19.026;2023-03-23T09:51:41;99897.84;;;18.17;40.09
68107;BME280;54892;47.488;19.026;2023-03-23T09:54:55;99892.09;;;18.32;39.56
68107;BME280;54892;47.488;19.026;2023-03-23T09:58:00;99889.00;;;18.48;39.09
68107;BME280;54892;47.488;19.026;2023-03-23T10:01:06;99889.28;;;18.37;39.03
68107;BME280;54892;47.488;19.026;2023-03-23T10:04:18;99880.97;;;18.48;38.46
68107;BME280;54892;47.488;19.026;2023-03-23T10:07:26;99888.16;;;18.38;39.11
68107;BME280;54892;47.488;19.026;2023-03-23T10:10:31;99889.78;;;18.48;39.17
68107;BME280;54892;47.488;19.026;2023-03-23T10:13:46;99886.63;;;18.46;39.14
68107;BME280;54892;47.488;19.026;2023-03-23T10:17:00;99875.78;;;18.51;39.15
68107;BME280;54892;47.488;19.026;2023-03-23T10:20:09;99872.19;;;18.56;38.96
68107;BME280;54892;47.488;19.026;2023-03-23T10:23:24;99870.16;;;18.70;38.85
68107;BME280;54892;47.488;19.026;2023-03-23T10:26:37;99864.50;;;18.63;39.44
68107;BME280;54892;47.488;19.026;2023-03-23T10:29:43;99857.91;;;18.78;39.11
68107;BME280;54892;47.488;19.026;2023-03-23T10:32:48;99853.03;;;18.89;38.93
68107;BME280;54892;47.488;19.026;2023-03-23T10:35:52;99845.66;;;19.04;38.40
68107;BME280;54892;47.488;19.026;2023-03-23T10:38:57;99844.41;;;19.10;38.88
68107;BME280;54892;47.488;19.026;2023-03-23T10:42:00;99839.22;;;19.05;39.20
68107;BME280;54892;47.488;19.026;2023-03-23T10:45:12;99840.94;;;19.09;38.72
68107;BME280;54892;47.488;19.026;2023-03-23T10:48:18;99840.31;;;19.12;38.96
68107;BME280;54892;47.488;19.026;2023-03-23T10:51:27;99837.34;;;19.05;38.54
68107;BME280;54892;47.488;19.026;2023-03-23T10:54:32;99834.97;;;19.04;38.48
68107;BME280;54892;47.488;19.026;2023-03-23T10:57:36;99831.19;;;19.05;38.31
68107;BME280;54892;47.488;19.026;2023-03-23T11:00:43;99833.37;;;18.85;39.43
68107;BME280;54892;47.488;19.026;2023-03-23T11:03:47;99837.16;;;19.01;39.20
68107;BME280;54892;47.488;19.026;2023-03-23T11:06:51;99833.25;;;18.99;40.02
68107;BME280;54892;47.488;19.026;2023-03-23T11:09:54;99835.91;;;19.08;39.74
68107;BME280;54892;47.488;19.026;2023-03-23T11:12:58;99831.31;;;19.17;38.92
68107;BME280;54892;47.488;19.026;2023-03-23T11:16:02;99824.38;;;19.25;37.97
68107;BME280;54892;47.488;19.026;2023-03-23T11:19:11;99816.84;;;19.18;37.05
68107;BME280;54892;47.488;19.026;2023-03-23T11:22:15;99817.16;;;19.25;37.06
68107;BME280;54892;47.488;19.026;2023-03-23T11:25:18;99806.12;;;19.36;36.83
68107;BME280;54892;47.488;19.026;2023-03-23T11:28:21;99799.59;;;19.54;36.30
68107;BME280;54892;47.488;19.026;2023-03-23T11:31:27;99802.59;;;19.61;35.68
68107;BME280;54892;47.488;19.026;2023-03-23T11:34:30;99804.31;;;19.57;36.11
68107;BME280;54892;47.488;19.026;2023-03-23T11:37:33;99811.72;;;19.60;35.99
68107;BME280;54892;47.488;19.026;2023-03-23T11:40:42;99801.94;;;19.56;36.06
68107;BME280;54892;47.488;19.026;2023-03-23T11:43:45;99808.09;;;19.56;35.52
68107;BME280;54892;47.488;19.026;2023-03-23T11:46:50;99805.94;;;19.41;36.54
68107;BME280;54892;47.488;19.026;2023-03-23T11:49:57;99808.31;;;19.33;36.62
68107;BME280;54892;47.488;19.026;2023-03-23T11:53:06;99798.72;;;19.32;36.69
68107;BME280;54892;47.488;19.026;2023-03-23T11:56:15;99797.81;;;19.28;36.37
68107;BME280;54892;47.488;19.026;2023-03-23T11:59:26;99800.78;;;19.27;36.17
68107;BME280;54892;47.488;19.026;2023-03-23T12:02:35;99793.84;;;19.26;36.29
68107;BME280;54892;47.488;19.026;2023-03-23T12:05:43;99795.91;;;19.29;36.53
68107;BME280;54892;47.488;19.026;2023-03-23T12:08:50;99787.34;;;19.44;35.98
68107;BME280;54892;47.488;19.026;2023-03-23T12:11:56;99790.91;;;19.66;35.61
68107;BME280;54892;47.488;19.026;2023-03-23T12:15:03;99782.06;;;19.66;36.28
68107;BME280;54892;47.488;19.026;2023-03-23T12:18:09;99764.28;;;19.70;35.80
68107;BME280;54892;47.488;19.026;2023-03-23T12:21:17;99761.22;;;19.80;35.08
68107;BME280;54892;47.488;19.026;2023-03-23T12:24:30;99755.56;;;19.82;35.63
68107;BME280;54892;47.488;19.026;2023-03-23T12:27:35;99740.25;;;19.91;35.43
68107;BME280;54892;47.488;19.026;2023-03-23T12:30:41;99738.38;;;19.83;35.38
68107;BME280;54892;47.488;19.026;2023-03-23T12:33:48;99745.97;;;20.11;35.16
68107;BME280;54892;47.488;19.026;2023-03-23T12:36:56;99738.69;;;20.11;34.83
68107;BME280;54892;47.488;19.026;2023-03-23T12:40:06;99734.78;;;20.08;35.44
68107;BME280;54892;47.488;19.026;2023-03-23T12:43:12;99735.38;;;20.14;35.14
68107;BME280;54892;47.488;19.026;2023-03-23T12:46:21;99734.31;;;20.28;35.17
68107;BME280;54892;47.488;19.026;2023-03-23T12:49:29;99735.44;;;20.27;35.15
68107;BME280;54892;47.488;19.026;2023-03-23T12:52:35;99729.81;;;20.41;34.51
68107;BME280;54892;47.488;19.026;2023-03-23T12:55:40;99735.72;;;20.34;35.07
68107;BME280;54892;47.488;19.026;2023-03-23T12:58:45;99727.25;;;20.44;34.37
68107;BME280;54892;47.488;19.026;2023-03-23T13:01:49;99727.91;;;20.41;34.59
68107;BME280;54892;47.488;19.026;2023-03-23T13:04:57;99728.75;;;20.54;34.18
68107;BME280;54892;47.488;19.026;2023-03-23T13:08:03;99729.47;;;20.42;34.83
68107;BME280;54892;47.488;19.026;2023-03-23T13:11:08;99717.72;;;20.34;34.66
68107;BME280;54892;47.488;19.026;2023-03-23T13:14:15;99716.59;;;20.57;33.63
68107;BME280;54892;47.488;19.026;2023-03-23T13:17:22;99724.38;;;20.49;34.74
68107;BME280;54892;47.488;19.026;2023-03-23T13:20:43;99720.72;;;20.54;34.80
68107;BME280;54892;47.488;19.026;2023-03-23T13:23:49;99719.59;;;20.76;34.14
68107;BME280;54892;47.488;19.026;2023-03-23T13:26:52;99711.84;;;20.75;33.71
68107;BME280;54892;47.488;19.026;2023-03-23T13:29:56;99711.47;;;20.64;33.64
68107;BME280;54892;47.488;19.026;2023-03-23T13:33:02;99716.41;;;20.74;33.39
68107;BME280;54892;47.488;19.026;2023-03-23T13:36:08;99713.25;;;20.60;34.41
68107;BME280;54892;47.488;19.026;2023-03-23T13:39:17;99713.47;;;20.54;34.21
68107;BME280;54892;47.488;19.026;2023-03-23T13:42:20;99707.69;;;20.65;34.64
68107;BME280;54892;47.488;19.026;2023-03-23T13:45:23;99703.25;;;20.69;34.50
68107;BME280;54892;47.488;19.026;2023-03-23T13:48:26;99699.38;;;20.58;34.44
68107;BME280;54892;47.488;19.026;2023-03-23T13:51:34;99700.31;;;20.62;34.67
68107;BME280;54892;47.488;19.026;2023-03-23T13:54:39;99695.84;;;20.66;33.94
68107;BME280;54892;47.488;19.026;2023-03-23T13:57:48;99689.47;;;20.58;33.54
68107;BME280;54892;47.488;19.026;2023-03-23T14:01:01;99689.84;;;20.48;34.05
68107;BME280;54892;47.488;19.026;2023-03-23T14:04:04;99692.44;;;20.57;34.72
68107;BME280;54892;47.488;19.026;2023-03-23T14:07:10;99689.94;;;20.39;34.77
68107;BME280;54892;47.488;19.026;2023-03-23T14:10:14;99688.91;;;20.31;35.05
68107;BME280;54892;47.488;19.026;2023-03-23T14:13:18;99687.94;;;20.36;34.79
68107;BME280;54892;47.488;19.026;2023-03-23T14:16:21;99686.00;;;20.36;34.74
68107;BME280;54892;47.488;19.026;2023-03-23T14:19:25;99681.66;;;20.32;35.16
68107;BME280;54892;47.488;19.026;2023-03-23T14:22:33;99677.50;;;20.34;35.02
68107;BME280;54892;47.488;19.026;2023-03-23T14:25:36;99675.81;;;20.30;35.21
68107;BME280;54892;47.488;19.026;2023-03-23T14:28:38;99673.56;;;20.19;35.28
68107;BME280;54892;47.488;19.026;2023-03-23T14:31:41;99669.81;;;20.33;34.66
68107;BME280;54892;47.488;19.026;2023-03-23T14:34:43;99672.50;;;20.12;35.47
68107;BME280;54892;47.488;19.026;2023-03-23T14:37:49;99669.44;;;20.01;35.61
68107;BME280;54892;47.488;19.026;2023-03-23T14:40:51;99668.72;;;19.91;35.71
68107;BME280;54892;47.488;19.026;2023-03-23T14:43:53;99665.91;;;19.88;35.88
68107;BME280;54892;47.488;19.026;2023-03-23T14:46:55;99666.19;;;19.86;36.10
68107;BME280;54892;47.488;19.026;2023-03-23T14:49:59;99673.28;;;19.91;36.01
68107;BME280;54892;47.488;19.026;2023-03-23T14:53:07;99671.34;;;20.00;35.65
68107;BME280;54892;47.488;19.026;2023-03-23T14:56:12;99672.13;;;20.01;36.03
68107;BME280;54892;47.488;19.026;2023-03-23T14:59:14;99669.50;;;20.13;35.79
68107;BME280;54892;47.488;19.026;2023-03-23T15:02:17;99663.03;;;20.14;35.68
68107;BME280;54892;47.488;19.026;2023-03-23T15:05:22;99672.06;;;20.10;35.93
68107;BME280;54892;47.488;19.026;2023-03-23T15:08:29;99667.47;;;20.31;35.50
68107;BME280;54892;47.488;19.026;2023-03-23T15:11:33;99664.84;;;20.44;35.01
68107;BME280;54892;47.488;19.026;2023-03-23T15:14:37;99665.56;;;20.32;35.43
68107;BME280;54892;47.488;19.026;2023-03-23T15:17:44;99665.97;;;20.21;35.92
68107;BME280;54892;47.488;19.026;2023-03-23T15:20:47;99661.47;;;20.13;35.82
68107;BME280;54892;47.488;19.026;2023-03-23T15:23:51;99665.13;;;20.08;35.92
68107;BME280;54892;47.488;19.026;2023-03-23T15:26:53;99673.22;;;20.00;35.88
68107;BME280;54892;47.488;19.026;2023-03-23T15:29:56;99682.38;;;19.99;35.84
68107;BME280;54892;47.488;19.026;2023-03-23T15:33:02;99673.16;;;19.87;35.91
68107;BME280;54892;47.488;19.026;2023-03-23T15:36:06;99670.56;;;19.70;36.19
68107;BME280;54892;47.488;19.026;2023-03-23T15:39:11;99670.75;;;19.65;36.40
68107;BME280;54892;47.488;19.026;2023-03-23T15:42:19;99654.66;;;19.65;36.19
68107;BME280;54892;47.488;19.026;2023-03-23T15:45:24;99661.53;;;19.53;36.62
68107;BME280;54892;47.488;19.026;2023-03-23T15:48:26;99658.03;;;19.61;36.81
68107;BME280;54892;47.488;19.026;2023-03-23T15:51:30;99657.03;;;19.66;36.83
68107;BME280;54892;47.488;19.026;2023-03-23T15:54:34;99663.97;;;19.67;36.65
68107;BME280;54892;47.488;19.026;2023-03-23T15:57:36;99660.13;;;19.77;36.29
68107;BME280;54892;47.488;19.026;2023-03-23T16:00:38;99661.12;;;19.63;36.57
68107;BME280;54892;47.488;19.026;2023-03-23T16:03:42;99665.66;;;19.72;36.39
68107;BME280;54892;47.488;19.026;2023-03-23T16:06:46;99666.53;;;19.55;36.68
68107;BME280;54892;47.488;19.026;2023-03-23T16:09:51;99663.50;;;19.35;37.22